createdAt,value
2018-07-28T00:00:13.516Z,23.40
2018-07-28T00:02:42.466Z,23.40
2018-07-28T00:05:11.328Z,23.30
2018-07-28T00:07:40.159Z,23.30
2018-07-28T00:10:12.099Z,23.30
2018-07-28T00:12:41.332Z,23.20
2018-07-28T00:15:11.627Z,23.20
2018-07-28T00:17:41.352Z,23.20
2018-07-28T00:20:11.898Z,23.10
2018-07-28T00:22:40.784Z,23.10
2018-07-28T00:25:11.593Z,23.10
2018-07-28T00:27:40.731Z,23.10
2018-07-28T00:30:11.989Z,23.00
2018-07-28T00:32:40.980Z,23.00
2018-07-28T00:35:09.897Z,23.00
2018-07-28T00:37:38.733Z,23.00
2018-07-28T00:40:08.170Z,22.90
2018-07-28T00:42:37.382Z,22.90
2018-07-28T00:45:06.919Z,22.90
2018-07-28T00:47:35.736Z,22.90
2018-07-28T00:50:05.955Z,22.90
2018-07-28T00:52:34.837Z,22.80
2018-07-28T00:55:03.726Z,22.80
2018-07-28T00:57:32.592Z,22.80
2018-07-28T01:00:01.460Z,22.80
2018-07-28T01:02:30.312Z,22.70
2018-07-28T01:04:59.176Z,22.70
2018-07-28T01:07:28.012Z,22.70
2018-07-28T01:09:56.858Z,22.70
2018-07-28T01:12:25.723Z,22.70
2018-07-28T01:14:54.607Z,22.70
2018-07-28T01:17:23.493Z,22.60
2018-07-28T01:19:52.379Z,22.60
2018-07-28T01:22:21.213Z,22.60
2018-07-28T01:24:50.136Z,22.60
2018-07-28T01:27:18.993Z,22.60
2018-07-28T01:29:47.857Z,22.50
2018-07-28T01:32:16.733Z,22.50
2018-07-28T01:34:45.567Z,22.50
2018-07-28T01:37:14.420Z,22.50
2018-07-28T01:39:43.285Z,22.40
2018-07-28T01:42:12.172Z,22.40
2018-07-28T01:44:41.000Z,22.40
2018-07-28T01:47:09.847Z,22.40
2018-07-28T01:49:38.713Z,22.40
2018-07-28T01:52:07.796Z,22.40
2018-07-28T01:54:36.644Z,22.30
2018-07-28T01:57:05.599Z,22.30
2018-07-28T01:59:34.473Z,22.30
2018-07-28T02:02:03.414Z,22.30
2018-07-28T02:04:32.299Z,22.20
2018-07-28T02:07:01.193Z,22.20
2018-07-28T02:09:29.986Z,22.20
2018-07-28T02:11:58.863Z,22.20
2018-07-28T02:14:27.743Z,22.20
2018-07-28T02:16:56.584Z,22.20
2018-07-28T02:19:25.416Z,22.20
2018-07-28T02:21:54.270Z,22.10
2018-07-28T02:24:23.083Z,22.10
2018-07-28T02:26:51.939Z,22.10
2018-07-28T02:29:20.801Z,22.10
2018-07-28T02:31:49.639Z,22.10
2018-07-28T02:34:18.462Z,22.10
2018-07-28T02:36:47.306Z,22.10
2018-07-28T02:39:16.131Z,22.10
2018-07-28T02:41:44.930Z,22.10
2018-07-28T02:44:13.820Z,22.00
2018-07-28T02:46:42.703Z,22.00
2018-07-28T02:49:11.579Z,22.00
2018-07-28T02:51:40.429Z,22.00
2018-07-28T02:54:09.297Z,22.00
2018-07-28T02:56:38.151Z,22.00
2018-07-28T02:59:06.993Z,22.00
2018-07-28T03:01:35.853Z,22.00
2018-07-28T03:04:04.769Z,22.00
2018-07-28T03:06:33.611Z,22.00
2018-07-28T03:09:02.502Z,22.00
2018-07-28T03:11:31.364Z,22.00
2018-07-28T03:14:00.235Z,22.00
2018-07-28T03:16:29.044Z,22.00
2018-07-28T03:18:57.891Z,22.00
2018-07-28T03:21:26.759Z,22.00
2018-07-28T03:23:55.744Z,22.00
2018-07-28T03:26:24.542Z,22.00
2018-07-28T03:28:53.407Z,22.00
2018-07-28T03:31:22.638Z,22.00
2018-07-28T03:33:51.471Z,22.00
2018-07-28T03:36:20.299Z,22.10
2018-07-28T03:38:49.152Z,22.10
2018-07-28T03:41:18.040Z,22.10
2018-07-28T03:43:46.826Z,22.10
2018-07-28T03:46:15.654Z,22.10
2018-07-28T03:48:44.569Z,22.10
2018-07-28T03:51:13.412Z,22.10
2018-07-28T03:53:42.228Z,22.20
2018-07-28T03:56:11.050Z,22.20
2018-07-28T03:58:39.884Z,22.20
2018-07-28T04:01:08.748Z,22.20
2018-07-28T04:03:37.583Z,22.30
2018-07-28T04:06:06.485Z,22.30
2018-07-28T04:08:35.339Z,22.40
2018-07-28T04:11:04.196Z,22.40
2018-07-28T04:13:33.105Z,22.50
2018-07-28T04:16:01.941Z,22.60
2018-07-28T04:18:30.768Z,22.60
2018-07-28T04:20:59.635Z,22.60
2018-07-28T04:23:28.516Z,22.70
2018-07-28T04:25:57.367Z,22.70
2018-07-28T04:28:26.564Z,22.80
2018-07-28T04:30:55.412Z,22.80
2018-07-28T04:33:24.265Z,22.80
2018-07-28T04:35:53.171Z,22.90
2018-07-28T04:38:22.037Z,23.00
2018-07-28T04:40:50.898Z,23.00
2018-07-28T04:43:19.764Z,23.10
2018-07-28T04:45:48.669Z,23.20
2018-07-28T04:48:17.732Z,23.30
2018-07-28T04:50:46.624Z,23.40
2018-07-28T04:53:15.448Z,23.50
2018-07-28T04:55:44.307Z,23.50
2018-07-28T04:58:13.195Z,23.60
2018-07-28T05:00:42.066Z,23.70
2018-07-28T05:03:10.989Z,23.80
2018-07-28T05:05:39.837Z,23.80
2018-07-28T05:08:08.695Z,23.90
2018-07-28T05:10:37.517Z,24.00
2018-07-28T05:13:06.351Z,24.20
2018-07-28T05:15:35.208Z,24.30
2018-07-28T05:18:04.037Z,24.40
2018-07-28T05:20:32.898Z,24.50
2018-07-28T05:23:01.756Z,24.60
2018-07-28T05:25:30.562Z,24.70
2018-07-28T05:27:59.407Z,24.70
2018-07-28T05:30:28.252Z,24.70
2018-07-28T05:32:57.160Z,24.80
2018-07-28T05:35:25.992Z,24.90
2018-07-28T05:37:54.815Z,24.90
2018-07-28T05:40:23.638Z,25.00
2018-07-28T05:42:52.453Z,25.10
2018-07-28T05:45:21.256Z,25.20
2018-07-28T05:47:50.144Z,25.20
2018-07-28T05:50:19.022Z,25.30
2018-07-28T05:52:47.846Z,25.40
2018-07-28T05:55:16.647Z,25.40
2018-07-28T05:57:45.449Z,25.50
2018-07-28T06:00:14.291Z,25.60
2018-07-28T06:02:43.276Z,25.60
2018-07-28T06:05:12.130Z,25.70
2018-07-28T06:07:40.966Z,25.80
2018-07-28T06:10:09.804Z,25.80
2018-07-28T06:12:38.639Z,25.80
2018-07-28T06:15:08.710Z,25.90
2018-07-28T06:17:37.664Z,26.00
2018-07-28T06:20:08.029Z,26.00
2018-07-28T06:22:37.340Z,26.10
2018-07-28T06:25:07.555Z,26.20
2018-07-28T06:27:36.426Z,26.20
2018-07-28T06:30:06.859Z,26.30
2018-07-28T06:32:35.687Z,26.20
2018-07-28T06:35:04.632Z,26.20
2018-07-28T06:37:33.540Z,26.10
2018-07-28T06:40:02.363Z,26.10
2018-07-28T06:42:31.237Z,26.20
2018-07-28T06:45:00.099Z,26.10
2018-07-28T06:47:28.929Z,26.20
2018-07-28T06:49:57.754Z,26.30
2018-07-28T06:52:26.783Z,26.30
2018-07-28T06:54:55.933Z,26.50
2018-07-28T06:57:24.805Z,26.70
2018-07-28T06:59:54.064Z,26.50
2018-07-28T07:02:22.857Z,26.70
2018-07-28T07:04:51.794Z,26.80
2018-07-28T07:07:20.633Z,26.70
2018-07-28T07:09:49.484Z,26.80
2018-07-28T07:12:18.347Z,27.00
2018-07-28T07:14:47.183Z,26.80
2018-07-28T07:17:16.243Z,26.90
2018-07-28T07:19:45.092Z,26.90
2018-07-28T07:22:13.919Z,27.00
2018-07-28T07:24:42.853Z,27.10
2018-07-28T07:27:11.693Z,27.30
2018-07-28T07:29:40.582Z,27.50
2018-07-28T07:32:09.457Z,27.70
2018-07-28T07:34:38.363Z,27.60
2018-07-28T07:37:07.246Z,27.50
2018-07-28T07:39:36.039Z,27.60
2018-07-28T07:42:04.864Z,27.50
2018-07-28T07:44:33.734Z,27.20
2018-07-28T07:47:02.614Z,27.20
2018-07-28T07:49:31.452Z,27.20
2018-07-28T07:52:00.321Z,27.20
2018-07-28T07:54:29.213Z,27.40
2018-07-28T07:56:58.058Z,27.50
2018-07-28T07:59:26.901Z,27.50
2018-07-28T08:01:55.714Z,27.60
2018-07-28T08:04:24.531Z,27.60
2018-07-28T08:06:53.360Z,27.50
2018-07-28T08:09:22.247Z,27.60
2018-07-28T08:11:51.079Z,27.60
2018-07-28T08:14:19.953Z,27.80
2018-07-28T08:16:48.768Z,27.80
2018-07-28T08:19:17.633Z,27.90
2018-07-28T08:21:46.510Z,28.00
2018-07-28T08:24:15.629Z,28.00
2018-07-28T08:26:44.531Z,28.30
2018-07-28T08:29:13.579Z,28.50
2018-07-28T08:31:42.508Z,28.70
2018-07-28T08:34:11.378Z,28.50
2018-07-28T08:36:40.218Z,28.40
2018-07-28T08:39:13.268Z,28.40
2018-07-28T08:41:43.134Z,28.70
2018-07-28T08:44:12.443Z,28.70
2018-07-28T08:46:41.301Z,28.70
2018-07-28T08:49:10.305Z,28.90
2018-07-28T08:54:36.454Z,28.90
2018-07-28T08:57:05.316Z,29.10
2018-07-28T08:59:34.160Z,29.30
2018-07-28T09:02:03.065Z,29.60
2018-07-28T09:04:31.880Z,29.80
2018-07-28T09:07:00.773Z,30.00
2018-07-28T09:09:29.616Z,30.10
2018-07-28T09:11:58.582Z,30.20
2018-07-28T09:14:27.436Z,30.30
2018-07-28T09:16:56.373Z,30.30
2018-07-28T09:19:25.276Z,30.40
2018-07-28T09:21:54.160Z,30.70
2018-07-28T09:24:22.974Z,31.00
2018-07-28T09:26:51.858Z,31.30
2018-07-28T09:29:20.717Z,31.30
2018-07-28T09:31:49.509Z,31.40
2018-07-28T09:34:18.408Z,31.30
2018-07-28T09:36:47.277Z,31.40
2018-07-28T09:39:16.074Z,31.60
2018-07-28T09:41:44.951Z,31.90
2018-07-28T09:44:13.866Z,32.10
2018-07-28T09:46:42.719Z,32.10
2018-07-28T09:49:11.551Z,32.10
2018-07-28T09:51:40.387Z,32.00
2018-07-28T09:54:09.289Z,32.00
2018-07-28T09:56:38.120Z,32.20
2018-07-28T09:59:07.137Z,32.30
2018-07-28T10:01:36.008Z,32.30
2018-07-28T10:04:04.843Z,32.40
2018-07-28T10:06:33.634Z,32.50
2018-07-28T10:09:02.539Z,32.60
2018-07-28T10:11:31.402Z,32.80
2018-07-28T10:14:00.282Z,32.50
2018-07-28T10:16:29.148Z,32.80
2018-07-28T10:18:57.983Z,32.90
2018-07-28T10:21:26.831Z,32.50
2018-07-28T10:23:55.656Z,32.40
2018-07-28T10:26:24.549Z,32.70
2018-07-28T10:28:53.424Z,32.90
2018-07-28T10:31:22.313Z,33.20
2018-07-28T10:33:51.147Z,33.40
2018-07-28T10:36:19.965Z,33.50
2018-07-28T10:38:48.841Z,33.80
2018-07-28T10:41:17.707Z,34.10
2018-07-28T10:43:46.540Z,34.40
2018-07-28T10:46:19.396Z,34.40
2018-07-28T10:48:49.103Z,34.60
2018-07-28T10:51:18.148Z,34.80
2018-07-28T10:53:47.051Z,35.10
2018-07-28T10:56:16.132Z,35.50
2018-07-28T10:58:45.372Z,35.80
2018-07-28T11:01:14.208Z,35.40
2018-07-28T11:03:43.074Z,35.50
2018-07-28T11:06:11.971Z,35.80
2018-07-28T11:08:40.796Z,35.80
2018-07-28T11:11:09.667Z,35.70
2018-07-28T11:13:38.511Z,35.80
2018-07-28T11:16:07.348Z,35.90
2018-07-28T11:18:36.209Z,36.30
2018-07-28T11:21:05.077Z,37.10
2018-07-28T11:23:54.969Z,37.80
2018-07-28T11:26:23.811Z,38.10
2018-07-28T11:28:53.564Z,38.40
2018-07-28T11:31:40.906Z,38.40
2018-07-28T11:34:27.003Z,38.40
2018-07-28T11:37:13.421Z,38.80
2018-07-28T11:42:40.155Z,39.60
2018-07-28T11:45:15.223Z,40.30
2018-07-28T11:47:44.128Z,40.30
2018-07-28T11:50:12.984Z,40.10
2018-07-28T11:52:42.348Z,40.50
2018-07-28T11:55:11.373Z,40.70
2018-07-28T11:57:40.214Z,41.30
2018-07-28T12:00:10.421Z,43.00
2018-07-28T12:02:39.532Z,44.50
2018-07-28T12:05:08.639Z,45.70
2018-07-28T12:07:37.492Z,47.10
2018-07-28T12:10:08.050Z,47.90
2018-07-28T12:12:36.944Z,48.80
2018-07-28T12:15:06.883Z,49.90
2018-07-28T12:17:35.772Z,50.00
2018-07-28T12:20:04.911Z,49.10
2018-07-28T12:22:33.785Z,46.90
2018-07-28T12:25:02.575Z,46.50
2018-07-28T12:27:31.393Z,48.70
2018-07-28T12:30:00.268Z,50.90
2018-07-28T12:32:29.139Z,52.70
2018-07-28T12:34:58.064Z,52.80
2018-07-28T12:37:26.836Z,52.60
2018-07-28T12:39:55.623Z,52.10
2018-07-28T12:42:24.470Z,53.10
2018-07-28T12:44:53.348Z,53.10
2018-07-28T12:47:22.228Z,50.50
2018-07-28T12:49:51.062Z,49.50
2018-07-28T12:52:19.900Z,49.40
2018-07-28T12:54:48.702Z,48.40
2018-07-28T12:57:17.490Z,45.80
2018-07-28T12:59:46.299Z,45.70
2018-07-28T13:02:15.152Z,47.20
2018-07-28T13:04:44.020Z,49.10
2018-07-28T13:07:12.810Z,51.50
2018-07-28T13:09:41.650Z,51.70
2018-07-28T13:12:10.471Z,50.70
2018-07-28T13:14:39.355Z,49.90
2018-07-28T13:17:08.200Z,50.50
2018-07-28T13:19:37.020Z,52.80
2018-07-28T13:22:06.066Z,52.40
2018-07-28T13:24:34.958Z,53.40
2018-07-28T13:27:03.785Z,54.70
2018-07-28T13:29:32.631Z,55.10
2018-07-28T13:32:01.495Z,53.80
2018-07-28T13:34:30.345Z,52.10
2018-07-28T13:36:59.170Z,50.30
2018-07-28T13:39:28.024Z,49.20
2018-07-28T13:41:56.844Z,50.10
2018-07-28T13:46:54.331Z,54.20
2018-07-28T13:49:23.234Z,55.80
2018-07-28T13:51:52.036Z,57.40
2018-07-28T13:54:20.889Z,58.60
2018-07-28T13:56:49.779Z,57.00
2018-07-28T13:59:18.655Z,58.30
2018-07-28T14:01:47.626Z,59.50
2018-07-28T14:04:16.482Z,60.50
2018-07-28T14:06:45.336Z,61.10
2018-07-28T14:09:14.184Z,61.40
2018-07-28T14:11:43.025Z,61.20
2018-07-28T14:14:12.005Z,60.70
2018-07-28T14:16:40.799Z,58.70
2018-07-28T14:19:09.685Z,59.90
2018-07-28T14:21:38.471Z,59.70
2018-07-28T14:24:07.287Z,59.10
2018-07-28T14:26:36.112Z,59.60
2018-07-28T14:29:04.983Z,59.70
2018-07-28T14:31:33.868Z,60.40
2018-07-28T14:34:02.750Z,61.00
2018-07-28T14:36:31.571Z,60.90
2018-07-28T14:39:00.564Z,60.50
2018-07-28T14:41:29.404Z,57.30
2018-07-28T14:43:59.046Z,53.70
2018-07-28T14:46:27.917Z,52.60
2018-07-28T14:48:56.789Z,51.90
2018-07-28T14:51:25.598Z,51.30
2018-07-28T14:53:54.471Z,53.50
2018-07-28T14:56:23.364Z,55.30
2018-07-28T14:58:52.190Z,56.80
2018-07-28T15:01:20.992Z,56.30
2018-07-28T15:03:49.806Z,53.50
2018-07-28T15:06:18.724Z,52.40
2018-07-28T15:08:47.546Z,50.70
2018-07-28T15:11:16.389Z,51.10
2018-07-28T15:13:45.219Z,50.90
2018-07-28T15:16:14.117Z,50.00
2018-07-28T15:18:42.950Z,51.50
2018-07-28T15:21:11.829Z,53.30
2018-07-28T15:23:40.649Z,51.60
2018-07-28T15:26:09.495Z,53.30
2018-07-28T15:28:38.417Z,53.20
2018-07-28T15:31:07.443Z,54.10
2018-07-28T15:33:36.541Z,52.90
2018-07-28T15:36:05.664Z,53.50
2018-07-28T15:38:34.498Z,53.70
2018-07-28T15:41:03.319Z,53.70
2018-07-28T15:43:32.131Z,51.40
2018-07-28T15:46:01.056Z,49.90
2018-07-28T15:48:29.913Z,50.40
2018-07-28T15:50:58.816Z,49.80
2018-07-28T15:53:27.656Z,49.50
2018-07-28T15:55:56.530Z,47.90
2018-07-28T15:58:25.411Z,45.70
2018-07-28T16:00:54.257Z,46.80
2018-07-28T16:03:23.066Z,47.80
2018-07-28T16:05:51.939Z,48.90
2018-07-28T16:08:20.803Z,49.70
2018-07-28T16:10:49.644Z,51.30
2018-07-28T16:13:18.601Z,51.20
2018-07-28T16:15:47.519Z,50.50
2018-07-28T16:18:16.324Z,50.10
2018-07-28T16:20:45.148Z,50.00
2018-07-28T16:23:14.012Z,50.30
2018-07-28T16:25:42.839Z,50.50
2018-07-28T16:28:11.614Z,51.40
2018-07-28T16:30:40.524Z,49.90
2018-07-28T16:33:09.387Z,49.40
2018-07-28T16:35:38.236Z,49.30
2018-07-28T16:38:07.134Z,49.00
2018-07-28T16:40:36.040Z,48.00
2018-07-28T16:43:04.950Z,47.20
2018-07-28T16:45:33.800Z,46.80
2018-07-28T16:48:02.634Z,46.00
2018-07-28T16:50:31.507Z,46.40
2018-07-28T16:53:00.427Z,47.50
2018-07-28T16:55:29.321Z,48.20
2018-07-28T16:57:58.938Z,49.20
2018-07-28T17:00:27.778Z,50.00
2018-07-28T17:02:56.571Z,50.30
2018-07-28T17:05:25.538Z,50.10
2018-07-28T17:07:54.325Z,49.30
2018-07-28T17:10:23.120Z,49.50
2018-07-28T17:12:51.919Z,48.40
2018-07-28T17:15:20.790Z,47.30
2018-07-28T17:17:49.631Z,46.60
2018-07-28T17:20:18.455Z,45.70
2018-07-28T17:22:47.336Z,44.50
2018-07-28T17:25:16.208Z,43.00
2018-07-28T17:27:45.035Z,42.20
2018-07-28T17:30:13.864Z,40.50
2018-07-28T17:32:42.686Z,39.50
2018-07-28T17:35:11.475Z,38.50
2018-07-28T17:37:40.359Z,35.40
2018-07-28T17:40:09.191Z,33.70
2018-07-28T17:42:38.066Z,31.60
2018-07-28T17:45:07.531Z,30.60
2018-07-28T17:47:36.372Z,29.70
2018-07-28T17:50:06.212Z,29.00
2018-07-28T17:52:35.130Z,28.60
2018-07-28T17:55:03.967Z,28.30
2018-07-28T17:57:32.791Z,27.90
2018-07-28T18:00:01.701Z,27.80
2018-07-28T18:02:30.444Z,27.50
2018-07-28T18:04:59.287Z,27.20
2018-07-28T18:07:28.190Z,27.00
2018-07-28T18:09:57.027Z,26.80
2018-07-28T18:12:25.887Z,26.60
2018-07-28T18:14:54.711Z,26.60
2018-07-28T18:17:23.562Z,26.70
2018-07-28T18:19:52.440Z,26.50
2018-07-28T18:22:21.242Z,26.60
2018-07-28T18:24:50.106Z,26.50
2018-07-28T18:27:18.975Z,26.50
2018-07-28T18:29:47.766Z,26.50
2018-07-28T18:32:16.643Z,26.40
2018-07-28T18:34:45.480Z,26.40
2018-07-28T18:37:14.328Z,26.50
2018-07-28T18:39:43.155Z,26.50
2018-07-28T18:42:12.040Z,26.20
2018-07-28T18:44:40.888Z,25.90
2018-07-28T18:47:09.737Z,25.80
2018-07-28T18:49:38.583Z,25.70
2018-07-28T18:52:07.730Z,25.60
2018-07-28T18:54:36.638Z,25.40
2018-07-28T18:57:05.769Z,25.40
2018-07-28T18:59:34.628Z,25.40
2018-07-28T19:02:03.467Z,25.50
2018-07-28T19:04:32.278Z,25.60
2018-07-28T19:07:01.075Z,25.80
2018-07-28T19:09:35.276Z,25.80
2018-07-28T19:12:04.123Z,25.90
2018-07-28T19:14:36.695Z,26.00
2018-07-28T19:17:05.584Z,26.00
2018-07-28T19:19:34.431Z,26.10
2018-07-28T19:22:03.311Z,26.10
2018-07-28T19:24:32.191Z,26.10
2018-07-28T19:27:00.987Z,26.10
2018-07-28T19:29:41.610Z,26.20
2018-07-28T19:32:10.693Z,26.20
2018-07-28T19:34:39.859Z,26.30
2018-07-28T19:37:14.093Z,26.30
2018-07-28T19:39:42.892Z,26.40
2018-07-28T19:42:17.212Z,26.30
2018-07-28T19:44:46.011Z,26.30
2018-07-28T19:47:14.835Z,26.10
2018-07-28T19:49:43.684Z,26.10
2018-07-28T19:52:12.541Z,26.00
2018-07-28T19:54:41.371Z,26.00
2018-07-28T19:57:10.191Z,26.10
2018-07-28T19:59:39.032Z,26.20
2018-07-28T20:02:07.966Z,25.90
2018-07-28T20:04:36.800Z,26.00
2018-07-28T20:07:05.621Z,25.90
2018-07-28T20:09:34.460Z,25.70
2018-07-28T20:12:03.287Z,25.30
2018-07-28T20:14:32.160Z,25.10
2018-07-28T20:17:01.059Z,24.70
2018-07-28T20:19:29.943Z,24.80
2018-07-28T20:21:58.751Z,24.70
2018-07-28T20:24:27.611Z,24.70
2018-07-28T20:26:56.456Z,24.60
2018-07-28T20:29:25.291Z,24.60
2018-07-28T20:31:54.139Z,24.40
2018-07-28T20:34:22.955Z,24.40
2018-07-28T20:36:51.803Z,24.30
2018-07-28T20:39:20.693Z,24.10
2018-07-28T20:41:49.534Z,24.10
2018-07-28T20:44:18.379Z,24.20
2018-07-28T20:46:47.247Z,24.10
2018-07-28T20:49:16.099Z,24.10
2018-07-28T20:51:44.951Z,24.10
2018-07-28T20:54:13.795Z,24.20
2018-07-28T20:56:42.631Z,24.20
2018-07-28T21:01:40.133Z,24.30
2018-07-28T21:04:08.955Z,24.20
2018-07-28T21:06:37.834Z,24.20
2018-07-28T21:09:08.143Z,24.20
2018-07-28T21:11:36.950Z,24.20
2018-07-28T21:14:05.766Z,24.20
2018-07-28T21:16:34.678Z,24.30
2018-07-28T21:19:03.560Z,24.30
2018-07-28T21:21:32.419Z,24.30
2018-07-28T21:24:01.243Z,24.30
2018-07-28T21:26:30.106Z,24.30
2018-07-28T21:28:58.934Z,24.30
2018-07-28T21:31:27.749Z,24.40
2018-07-28T21:33:56.575Z,24.40
2018-07-28T21:36:25.468Z,24.40
2018-07-28T21:38:54.303Z,24.40
2018-07-28T21:41:23.383Z,24.40
2018-07-28T21:43:52.220Z,24.40
2018-07-28T21:46:21.172Z,24.40
2018-07-28T21:48:50.432Z,24.50
2018-07-28T21:51:19.246Z,24.50
2018-07-28T21:53:48.055Z,24.50
2018-07-28T21:56:21.593Z,24.50
2018-07-28T21:58:50.566Z,24.60
2018-07-28T22:01:19.498Z,24.70
2018-07-28T22:03:48.385Z,24.70
2018-07-28T22:08:45.939Z,24.70
2018-07-28T22:11:14.856Z,24.80
2018-07-28T22:13:43.722Z,24.80
2018-07-28T22:16:12.606Z,24.80
2018-07-28T22:18:41.423Z,24.90
2018-07-28T22:21:11.488Z,24.90
2018-07-28T22:23:40.511Z,24.90
2018-07-28T22:26:09.339Z,24.90
2018-07-28T22:28:38.417Z,24.90
2018-07-28T22:31:07.255Z,24.90
2018-07-28T22:33:36.110Z,24.80
2018-07-28T22:36:04.939Z,24.70
2018-07-28T22:38:33.722Z,24.70
2018-07-28T22:41:02.573Z,24.70
2018-07-28T22:43:31.364Z,24.70
2018-07-28T22:46:00.175Z,24.80
2018-07-28T22:48:29.036Z,24.80
2018-07-28T22:50:57.846Z,24.80
2018-07-28T22:53:26.677Z,24.80
2018-07-28T22:55:55.552Z,24.70
2018-07-28T22:58:24.383Z,24.70
2018-07-28T23:00:53.260Z,24.60
2018-07-28T23:03:22.082Z,24.60
2018-07-28T23:05:50.980Z,24.40
2018-07-28T23:08:19.795Z,24.20
2018-07-28T23:10:48.606Z,24.10
2018-07-28T23:13:17.419Z,23.90
2018-07-28T23:15:46.271Z,23.70
2018-07-28T23:18:15.084Z,23.60
2018-07-28T23:20:43.923Z,23.60
2018-07-28T23:23:12.811Z,23.40
2018-07-28T23:25:41.614Z,23.40
2018-07-28T23:28:10.430Z,23.30
2018-07-28T23:30:39.289Z,23.10
2018-07-28T23:33:08.113Z,23.10
2018-07-28T23:35:36.996Z,23.10
2018-07-28T23:38:05.884Z,23.00
2018-07-28T23:40:34.686Z,23.10
2018-07-28T23:43:03.547Z,23.00
2018-07-28T23:45:32.347Z,22.90
2018-07-28T23:48:01.248Z,22.70
2018-07-28T23:50:30.075Z,22.70
2018-07-28T23:52:58.874Z,22.70
2018-07-28T23:55:27.765Z,22.60
2018-07-28T23:57:56.566Z,22.60
